Terminal Aerodrome Forecast
Issued by NWS Austin/San Antonio, TX

Home | Current Version | Previous Version | Text Only | Print | Product List | Glossary On
Versions: 1 2 3 4 5 6 7 8 9 10 11 12 13 14 15
608
FTUS44 KEWX 162324
TAFSAT
TAF
KSAT 162324Z 1700/1806 15015KT P6SM FEW070 SCT250
     FM170600 17011KT P6SM BKN018
     FM171600 16017KT P6SM SCT040 SCT250=

USA.gov is the U.S. government's official web portal to all federal, state and local government web resources and services.